createdAt,value
2018-04-06T00:01:08.368Z,4.20
2018-04-06T00:03:36.031Z,4.20
2018-04-06T00:06:03.653Z,4.20
2018-04-06T00:08:31.250Z,4.20
2018-04-06T00:10:58.975Z,4.20
2018-04-06T00:13:26.631Z,4.10
2018-04-06T00:15:54.272Z,4.10
2018-04-06T00:18:22.903Z,4.10
2018-04-06T00:20:50.544Z,4.10
2018-04-06T00:23:18.175Z,4.10
2018-04-06T00:25:46.576Z,4.10
2018-04-06T00:28:14.166Z,4.10
2018-04-06T00:30:41.833Z,4.00
2018-04-06T00:33:09.474Z,4.10
2018-04-06T00:35:37.440Z,4.10
2018-04-06T00:38:05.078Z,4.00
2018-04-06T00:40:32.662Z,4.00
2018-04-06T00:43:00.246Z,4.00
2018-04-06T00:45:27.881Z,4.00
2018-04-06T00:47:55.522Z,3.90
2018-04-06T00:50:23.122Z,4.00
2018-04-06T00:52:50.786Z,4.00
2018-04-06T00:55:18.471Z,4.00
2018-04-06T00:57:46.864Z,4.00
2018-04-06T01:00:15.221Z,3.90
2018-04-06T01:02:43.645Z,3.90
2018-04-06T01:05:11.242Z,3.90
2018-04-06T01:07:38.823Z,4.00
2018-04-06T01:10:06.479Z,3.90
2018-04-06T01:12:34.086Z,3.90
2018-04-06T01:15:01.712Z,3.90
2018-04-06T01:17:30.119Z,3.80
2018-04-06T01:19:57.778Z,3.80
2018-04-06T01:22:25.378Z,3.80
2018-04-06T01:24:53.032Z,3.80
2018-04-06T01:27:20.633Z,3.80
2018-04-06T01:29:49.016Z,3.70
2018-04-06T01:32:17.432Z,3.70
2018-04-06T01:34:45.046Z,3.70
2018-04-06T01:37:13.492Z,3.70
2018-04-06T01:39:41.096Z,3.70
2018-04-06T01:42:08.766Z,3.60
2018-04-06T01:44:36.381Z,3.60
2018-04-06T01:47:03.986Z,3.60
2018-04-06T01:49:31.602Z,3.60
2018-04-06T01:51:59.326Z,3.50
2018-04-06T01:54:26.984Z,3.60
2018-04-06T01:56:54.626Z,3.50
2018-04-06T01:59:22.246Z,3.50
2018-04-06T02:01:49.843Z,3.50
2018-04-06T02:04:17.547Z,3.50
2018-04-06T02:06:45.138Z,3.50
2018-04-06T02:09:12.748Z,3.50
2018-04-06T02:11:40.396Z,3.50
2018-04-06T02:14:07.998Z,3.40
2018-04-06T02:16:35.654Z,3.40
2018-04-06T02:19:03.282Z,3.40
2018-04-06T02:21:31.598Z,3.40
2018-04-06T02:23:59.186Z,3.40
2018-04-06T02:26:27.904Z,3.40
2018-04-06T02:28:55.559Z,3.30
2018-04-06T02:31:23.195Z,3.30
2018-04-06T02:33:51.577Z,3.30
2018-04-06T02:36:19.972Z,3.30
2018-04-06T02:38:47.611Z,3.20
2018-04-06T02:41:15.993Z,3.20
2018-04-06T02:43:44.362Z,3.30
2018-04-06T02:46:12.014Z,3.20
2018-04-06T02:48:39.617Z,3.20
2018-04-06T02:51:07.231Z,3.20
2018-04-06T02:53:34.853Z,3.20
2018-04-06T02:56:02.450Z,3.20
2018-04-06T02:58:30.136Z,3.20
2018-04-06T03:00:58.508Z,3.20
2018-04-06T03:03:26.895Z,3.20
2018-04-06T03:05:55.284Z,3.10
2018-04-06T03:08:22.881Z,3.10
2018-04-06T03:10:50.477Z,3.10
2018-04-06T03:13:18.098Z,3.10
2018-04-06T03:15:45.740Z,3.10
2018-04-06T03:18:13.350Z,3.10
2018-04-06T03:20:41.738Z,3.10
2018-04-06T03:23:10.117Z,3.10
2018-04-06T03:25:38.517Z,3.10
2018-04-06T03:28:06.102Z,3.00
2018-04-06T03:30:33.723Z,3.10
2018-04-06T03:33:03.583Z,3.10
2018-04-06T03:35:31.219Z,3.00
2018-04-06T03:37:58.812Z,3.10
2018-04-06T03:40:26.457Z,3.10
2018-04-06T03:42:54.074Z,3.00
2018-04-06T03:45:22.458Z,3.00
2018-04-06T03:47:50.839Z,3.00
2018-04-06T03:50:19.211Z,3.00
2018-04-06T03:52:47.628Z,3.00
2018-04-06T03:55:15.277Z,3.00
2018-04-06T03:57:42.906Z,3.00
2018-04-06T04:00:11.343Z,2.90
2018-04-06T04:02:38.951Z,2.90
2018-04-06T04:05:07.357Z,2.90
2018-04-06T04:07:35.354Z,2.80
2018-04-06T04:10:03.036Z,2.80
2018-04-06T04:12:30.630Z,2.90
2018-04-06T04:14:58.261Z,2.90
2018-04-06T04:17:25.925Z,2.90
2018-04-06T04:19:54.291Z,2.90
2018-04-06T04:22:22.545Z,2.90
2018-04-06T04:24:50.194Z,2.90
2018-04-06T04:27:17.824Z,2.90
2018-04-06T04:29:45.438Z,3.00
2018-04-06T04:32:13.083Z,3.00
2018-04-06T04:34:40.791Z,2.90
2018-04-06T04:37:09.194Z,3.00
2018-04-06T04:39:36.819Z,2.90
2018-04-06T04:42:04.465Z,3.00
2018-04-06T04:44:32.455Z,3.00
2018-04-06T04:47:00.175Z,2.90
2018-04-06T04:49:27.858Z,3.00
2018-04-06T04:51:55.604Z,3.00
2018-04-06T04:54:23.262Z,3.00
2018-04-06T04:56:50.910Z,2.90
2018-04-06T04:59:18.548Z,3.00
2018-04-06T05:01:46.194Z,3.00
2018-04-06T05:04:13.834Z,3.00
2018-04-06T05:06:41.717Z,3.00
2018-04-06T05:09:09.424Z,3.00
2018-04-06T05:11:37.060Z,3.00
2018-04-06T05:14:04.710Z,3.00
2018-04-06T05:16:32.328Z,3.00
2018-04-06T05:18:59.989Z,3.00
2018-04-06T05:21:27.593Z,3.00
2018-04-06T05:23:55.233Z,3.10
2018-04-06T05:26:23.612Z,3.10
2018-04-06T05:28:52.074Z,3.20
2018-04-06T05:31:20.455Z,3.20
2018-04-06T05:33:48.058Z,3.20
2018-04-06T05:36:15.699Z,3.20
2018-04-06T05:38:44.225Z,3.30
2018-04-06T05:41:11.795Z,3.30
2018-04-06T05:43:39.464Z,3.30
2018-04-06T05:49:14.049Z,3.40
2018-04-06T05:51:49.270Z,3.50
2018-04-06T05:54:17.859Z,3.50
2018-04-06T05:56:46.207Z,3.60
2018-04-06T05:59:14.269Z,3.60
2018-04-06T06:01:42.386Z,3.70
2018-04-06T06:04:10.051Z,3.60
2018-04-06T06:06:37.701Z,3.70
2018-04-06T06:09:06.080Z,3.80
2018-04-06T06:11:35.190Z,3.90
2018-04-06T06:14:02.808Z,3.80
2018-04-06T06:16:34.569Z,3.90
2018-04-06T06:19:02.227Z,3.90
2018-04-06T06:21:29.897Z,4.00
2018-04-06T06:23:58.267Z,4.00
2018-04-06T06:26:29.509Z,4.00
2018-04-06T06:28:57.797Z,4.10
2018-04-06T06:31:26.133Z,4.20
2018-04-06T06:33:53.804Z,4.30
2018-04-06T06:36:21.456Z,4.20
2018-04-06T06:38:49.062Z,4.40
2018-04-06T06:41:17.479Z,4.50
2018-04-06T06:43:45.085Z,4.50
2018-04-06T06:46:12.689Z,4.70
2018-04-06T06:48:40.316Z,4.70
2018-04-06T06:51:07.906Z,4.80
2018-04-06T06:53:35.527Z,4.90
2018-04-06T06:56:03.157Z,4.90
2018-04-06T06:58:30.755Z,4.80
2018-04-06T07:00:59.139Z,5.00
2018-04-06T07:03:27.549Z,5.10
2018-04-06T07:05:55.123Z,5.10
2018-04-06T07:08:22.788Z,5.30
2018-04-06T07:10:50.423Z,5.30
2018-04-06T07:13:18.085Z,5.30
2018-04-06T07:15:46.543Z,5.30
2018-04-06T07:18:14.892Z,5.50
2018-04-06T07:20:42.503Z,5.50
2018-04-06T07:23:10.130Z,5.60
2018-04-06T07:25:37.786Z,5.60
2018-04-06T07:28:05.408Z,5.70
2018-04-06T07:30:33.058Z,5.80
2018-04-06T07:33:00.703Z,5.80
2018-04-06T07:35:28.326Z,5.90
2018-04-06T07:37:55.987Z,6.20
2018-04-06T07:40:24.357Z,6.20
2018-04-06T07:42:51.988Z,6.10
2018-04-06T07:45:19.614Z,6.10
2018-04-06T07:47:48.060Z,6.20
2018-04-06T07:50:15.667Z,6.20
2018-04-06T07:52:43.319Z,6.30
2018-04-06T07:55:10.910Z,6.30
2018-04-06T07:57:38.490Z,6.40
2018-04-06T08:00:06.113Z,6.30
2018-04-06T08:02:33.726Z,6.30
2018-04-06T08:05:01.407Z,6.40
2018-04-06T08:07:29.819Z,6.80
2018-04-06T08:09:57.425Z,6.80
2018-04-06T08:12:25.086Z,6.90
2018-04-06T08:14:52.759Z,7.00
2018-04-06T08:17:21.120Z,7.20
2018-04-06T08:19:48.761Z,7.20
2018-04-06T08:22:16.339Z,7.40
2018-04-06T08:24:43.939Z,7.50
2018-04-06T08:27:11.584Z,7.60
2018-04-06T08:29:39.949Z,7.60
2018-04-06T08:32:08.362Z,7.70
2018-04-06T08:34:35.986Z,7.70
2018-04-06T08:37:03.651Z,7.70
2018-04-06T08:39:32.005Z,7.80
2018-04-06T08:41:59.637Z,7.80
2018-04-06T08:44:27.221Z,7.80
2018-04-06T08:46:54.809Z,7.80
2018-04-06T08:49:23.217Z,8.00
2018-04-06T08:51:50.803Z,8.00
2018-04-06T08:54:18.559Z,8.10
2018-04-06T08:56:46.200Z,8.30
2018-04-06T08:59:13.809Z,8.40
2018-04-06T09:01:41.402Z,8.50
2018-04-06T09:04:09.794Z,8.60
2018-04-06T09:06:37.416Z,8.50
2018-04-06T09:09:05.799Z,8.60
2018-04-06T09:11:34.193Z,8.50
2018-04-06T09:14:02.575Z,8.50
2018-04-06T09:16:30.196Z,8.50
2018-04-06T09:18:57.854Z,8.60
2018-04-06T09:21:25.520Z,8.80
2018-04-06T09:23:53.308Z,8.80
2018-04-06T09:26:24.674Z,9.00
2018-04-06T09:28:52.925Z,9.00
2018-04-06T09:31:21.324Z,9.30
2018-04-06T09:33:48.922Z,9.30
2018-04-06T09:36:16.562Z,9.30
2018-04-06T09:38:44.163Z,9.20
2018-04-06T09:41:11.766Z,9.20
2018-04-06T09:43:39.354Z,9.10
2018-04-06T09:46:06.974Z,9.30
2018-04-06T09:48:35.331Z,9.40
2018-04-06T09:51:04.478Z,9.50
2018-04-06T09:53:32.091Z,9.50
2018-04-06T09:55:59.689Z,9.70
2018-04-06T09:58:27.343Z,9.90
2018-04-06T10:00:58.862Z,9.80
2018-04-06T10:03:26.528Z,9.70
2018-04-06T10:05:54.441Z,9.30
2018-04-06T10:08:22.716Z,9.50
2018-04-06T10:10:50.372Z,9.60
2018-04-06T10:13:18.058Z,9.70
2018-04-06T10:15:45.681Z,9.70
2018-04-06T10:18:13.270Z,9.70
2018-04-06T10:20:40.907Z,9.80
2018-04-06T10:23:08.510Z,9.90
2018-04-06T10:25:36.105Z,9.90
2018-04-06T10:28:04.543Z,10.10
2018-04-06T10:30:32.246Z,10.10
2018-04-06T10:33:00.618Z,10.10
2018-04-06T10:35:29.008Z,10.20
2018-04-06T10:37:57.399Z,10.10
2018-04-06T10:40:25.005Z,10.10
2018-04-06T10:42:52.631Z,10.10
2018-04-06T10:45:20.248Z,10.10
2018-04-06T10:47:48.623Z,10.30
2018-04-06T10:50:17.064Z,10.30
2018-04-06T10:52:44.685Z,10.30
2018-04-06T10:55:13.075Z,10.40
2018-04-06T10:57:40.682Z,10.40
2018-04-06T11:00:08.267Z,10.40
2018-04-06T11:02:36.660Z,10.50
2018-04-06T11:05:05.047Z,10.50
2018-04-06T11:07:32.632Z,10.40
2018-04-06T11:10:00.218Z,10.60
2018-04-06T11:12:27.854Z,10.70
2018-04-06T11:14:55.448Z,10.50
2018-04-06T11:17:23.063Z,10.70
2018-04-06T11:19:50.677Z,10.50
2018-04-06T11:22:19.112Z,10.40
2018-04-06T11:24:46.713Z,10.40
2018-04-06T11:27:15.080Z,10.50
2018-04-06T11:29:42.715Z,10.50
2018-04-06T11:32:10.317Z,10.60
2018-04-06T11:34:38.682Z,10.60
2018-04-06T11:37:08.005Z,10.60
2018-04-06T11:39:36.368Z,10.70
2018-04-06T11:42:04.812Z,10.70
2018-04-06T11:44:32.447Z,10.70
2018-04-06T11:47:00.035Z,10.80
2018-04-06T11:49:27.704Z,10.80
2018-04-06T11:51:55.288Z,10.80
2018-04-06T11:54:23.741Z,11.00
2018-04-06T11:56:51.335Z,10.90
2018-04-06T11:59:19.700Z,11.00
2018-04-06T12:01:47.628Z,11.00
2018-04-06T12:04:15.226Z,11.00
2018-04-06T12:06:42.841Z,11.00
2018-04-06T12:09:10.478Z,11.10
2018-04-06T12:11:38.703Z,11.20
2018-04-06T12:14:06.331Z,11.20
2018-04-06T12:16:34.006Z,11.20
2018-04-06T12:19:01.631Z,11.20
2018-04-06T12:21:29.247Z,11.30
2018-04-06T12:23:57.506Z,11.40
2018-04-06T12:26:25.123Z,11.40
2018-04-06T12:28:52.818Z,11.90
2018-04-06T12:31:20.454Z,12.50
2018-04-06T12:33:49.409Z,13.30
2018-04-06T12:36:17.679Z,13.90
2018-04-06T12:38:45.374Z,14.90
2018-04-06T12:41:13.734Z,15.40
2018-04-06T12:43:42.101Z,15.50
2018-04-06T12:46:09.762Z,15.50
2018-04-06T12:48:37.385Z,15.60
2018-04-06T12:51:05.200Z,16.60
2018-04-06T12:53:32.873Z,17.40
2018-04-06T12:56:00.492Z,17.30
2018-04-06T12:58:28.104Z,16.70
2018-04-06T13:00:55.791Z,16.80
2018-04-06T13:03:24.250Z,17.00
2018-04-06T13:05:51.879Z,17.00
2018-04-06T13:08:19.596Z,17.10
2018-04-06T13:10:48.094Z,17.50
2018-04-06T13:13:15.714Z,18.10
2018-04-06T13:15:43.361Z,18.80
2018-04-06T13:18:10.989Z,19.70
2018-04-06T13:20:38.590Z,20.80
2018-04-06T13:23:06.232Z,20.90
2018-04-06T13:25:34.638Z,21.40
2018-04-06T13:28:02.254Z,21.30
2018-04-06T13:30:29.981Z,22.80
2018-04-06T13:32:58.546Z,20.90
2018-04-06T13:35:26.150Z,20.60
2018-04-06T13:37:53.810Z,20.30
2018-04-06T13:40:21.404Z,20.40
2018-04-06T13:42:50.252Z,21.90
2018-04-06T13:45:19.388Z,23.20
2018-04-06T13:47:47.805Z,25.00
2018-04-06T13:50:15.456Z,24.90
2018-04-06T13:52:43.046Z,24.40
2018-04-06T13:55:10.652Z,24.80
2018-04-06T13:57:38.315Z,24.30
2018-04-06T14:00:05.900Z,23.80
2018-04-06T14:02:33.507Z,24.30
2018-04-06T14:05:01.943Z,27.00
2018-04-06T14:07:29.580Z,26.90
2018-04-06T14:09:57.170Z,28.10
2018-04-06T14:12:24.816Z,26.50
2018-04-06T14:14:52.407Z,25.30
2018-04-06T14:17:20.003Z,25.60
2018-04-06T14:19:48.402Z,24.30
2018-04-06T14:22:16.017Z,24.30
2018-04-06T14:24:43.724Z,26.20
2018-04-06T14:27:11.370Z,26.20
2018-04-06T14:29:38.976Z,26.00
2018-04-06T14:32:06.633Z,26.50
2018-04-06T14:34:34.237Z,27.30
2018-04-06T14:37:02.623Z,29.80
2018-04-06T14:39:30.866Z,29.70
2018-04-06T14:41:58.459Z,30.00
2018-04-06T14:44:26.069Z,29.60
2018-04-06T14:46:53.744Z,30.60
2018-04-06T14:49:21.380Z,31.90
2018-04-06T14:51:49.018Z,32.80
2018-04-06T14:54:16.635Z,32.10
2018-04-06T14:56:45.020Z,32.80
2018-04-06T14:59:13.390Z,30.20
2018-04-06T15:01:41.371Z,30.10
2018-04-06T15:04:09.736Z,29.00
2018-04-06T15:06:37.369Z,29.00
2018-04-06T15:09:06.692Z,29.10
2018-04-06T15:11:34.325Z,29.00
2018-04-06T15:14:01.915Z,29.80
2018-04-06T15:16:29.548Z,30.60
2018-04-06T15:18:57.134Z,31.40
2018-04-06T15:21:24.752Z,31.70
2018-04-06T15:23:52.416Z,31.10
2018-04-06T15:26:20.036Z,30.60
2018-04-06T15:28:48.246Z,30.10
2018-04-06T15:31:15.861Z,30.90
2018-04-06T15:33:44.262Z,31.70
2018-04-06T15:36:12.147Z,31.70
2018-04-06T15:38:40.537Z,31.30
2018-04-06T15:41:08.605Z,31.70
2018-04-06T15:43:36.195Z,32.00
2018-04-06T15:46:03.880Z,29.40
2018-04-06T15:48:32.237Z,24.20
2018-04-06T15:50:59.827Z,24.00
2018-04-06T15:53:28.298Z,20.80
2018-04-06T15:55:56.678Z,19.70
2018-04-06T15:58:25.081Z,19.00
2018-04-06T16:00:52.690Z,19.00
2018-04-06T16:03:20.282Z,18.40
2018-04-06T16:05:47.922Z,17.90
2018-04-06T16:08:15.517Z,17.40
2018-04-06T16:10:43.118Z,17.10
2018-04-06T16:13:10.753Z,16.90
2018-04-06T16:15:39.188Z,16.60
2018-04-06T16:18:07.561Z,16.10
2018-04-06T16:20:35.973Z,16.00
2018-04-06T16:23:03.598Z,15.90
2018-04-06T16:25:31.987Z,15.50
2018-04-06T16:28:00.400Z,15.40
2018-04-06T16:30:28.017Z,15.40
2018-04-06T16:32:56.448Z,15.30
2018-04-06T16:35:24.100Z,15.30
2018-04-06T16:37:51.721Z,15.20
2018-04-06T16:40:20.127Z,15.00
2018-04-06T16:42:47.792Z,14.90
2018-04-06T16:45:15.422Z,14.90
2018-04-06T16:47:43.775Z,14.60
2018-04-06T16:50:11.477Z,14.60
2018-04-06T16:52:39.065Z,14.50
2018-04-06T16:55:06.693Z,14.30
2018-04-06T16:57:35.072Z,14.20
2018-04-06T17:00:03.428Z,14.00
2018-04-06T17:02:31.802Z,14.00
2018-04-06T17:04:59.637Z,13.90
2018-04-06T17:07:27.224Z,13.90
2018-04-06T17:09:54.818Z,13.80
2018-04-06T17:12:22.451Z,13.70
2018-04-06T17:14:50.832Z,13.50
2018-04-06T17:17:18.422Z,13.50
2018-04-06T17:19:46.089Z,13.50
2018-04-06T17:22:13.717Z,13.40
2018-04-06T17:24:42.246Z,13.20
2018-04-06T17:27:09.835Z,13.20
2018-04-06T17:29:37.441Z,13.20
2018-04-06T17:32:05.079Z,13.10
2018-04-06T17:34:33.462Z,12.90
2018-04-06T17:37:01.832Z,12.80
2018-04-06T17:39:30.234Z,12.70
2018-04-06T17:41:57.871Z,12.60
2018-04-06T17:44:26.219Z,12.50
2018-04-06T17:46:53.844Z,12.40
2018-04-06T17:49:21.474Z,12.40
2018-04-06T17:51:49.910Z,12.20
2018-04-06T17:54:17.547Z,12.20
2018-04-06T17:56:45.238Z,12.10
2018-04-06T17:59:13.082Z,12.10
2018-04-06T18:01:40.746Z,12.00
2018-04-06T18:04:08.351Z,11.90
2018-04-06T18:06:36.783Z,11.80
2018-04-06T18:09:04.443Z,11.80
2018-04-06T18:11:32.030Z,11.80
2018-04-06T18:14:00.241Z,11.70
2018-04-06T18:16:28.044Z,11.60
2018-04-06T18:18:55.838Z,11.60
2018-04-06T18:21:23.464Z,11.50
2018-04-06T18:23:51.076Z,11.50
2018-04-06T18:26:19.535Z,11.40
2018-04-06T18:28:47.171Z,11.40
2018-04-06T18:31:15.063Z,11.30
2018-04-06T18:33:42.904Z,11.20
2018-04-06T18:36:11.395Z,11.10
2018-04-06T18:38:39.254Z,11.10
2018-04-06T18:41:06.917Z,11.10
2018-04-06T18:43:34.580Z,11.00
2018-04-06T18:46:02.403Z,11.00
2018-04-06T18:48:30.115Z,10.90
2018-04-06T18:50:57.747Z,10.90
2018-04-06T18:53:25.381Z,10.80
2018-04-06T18:55:53.063Z,10.80
2018-04-06T18:58:20.684Z,10.70
2018-04-06T19:00:48.346Z,10.70
2018-04-06T19:03:16.907Z,10.70
2018-04-06T19:05:44.519Z,10.60
2018-04-06T19:08:12.147Z,10.60
2018-04-06T19:10:40.515Z,10.60
2018-04-06T19:13:08.367Z,10.60
2018-04-06T19:15:36.193Z,10.60
2018-04-06T19:18:03.817Z,10.50
2018-04-06T19:20:35.431Z,10.50
2018-04-06T19:23:03.030Z,10.50
2018-04-06T19:25:31.414Z,10.50
2018-04-06T19:27:59.808Z,10.40
2018-04-06T19:30:27.423Z,10.40
2018-04-06T19:32:55.025Z,10.30
2018-04-06T19:35:22.650Z,10.30
2018-04-06T19:37:51.019Z,10.20
2018-04-06T19:40:18.663Z,10.20
2018-04-06T19:42:46.258Z,10.20
2018-04-06T19:45:15.359Z,10.00
2018-04-06T19:47:43.778Z,10.00
2018-04-06T19:50:11.435Z,10.00
2018-04-06T19:52:39.044Z,10.00
2018-04-06T19:55:06.739Z,9.90
2018-04-06T19:57:34.336Z,9.90
2018-04-06T20:00:01.918Z,9.80
2018-04-06T20:02:29.586Z,9.80
2018-04-06T20:04:57.315Z,9.80
2018-04-06T20:07:24.929Z,9.70
2018-04-06T20:09:53.342Z,9.60
2018-04-06T20:12:20.960Z,9.60
2018-04-06T20:14:49.392Z,9.60
2018-04-06T20:17:17.135Z,9.50
2018-04-06T20:19:44.738Z,9.50
2018-04-06T20:22:12.328Z,9.50
2018-04-06T20:24:40.742Z,9.40
2018-04-06T20:27:08.339Z,9.40
2018-04-06T20:29:36.055Z,9.30
2018-04-06T20:32:03.769Z,9.30
2018-04-06T20:34:31.397Z,9.30
2018-04-06T20:36:59.058Z,9.30
2018-04-06T20:39:27.175Z,9.20
2018-04-06T20:41:55.791Z,9.10
2018-04-06T20:44:23.378Z,9.10
2018-04-06T20:46:51.001Z,9.10
2018-04-06T20:49:18.661Z,9.00
2018-04-06T20:51:46.322Z,9.00
2018-04-06T20:54:14.014Z,9.00
2018-04-06T20:56:41.647Z,9.00
2018-04-06T20:59:09.240Z,8.90
2018-04-06T21:01:36.857Z,8.80
2018-04-06T21:04:05.351Z,8.80
2018-04-06T21:06:32.990Z,8.80
2018-04-06T21:09:01.419Z,8.70
2018-04-06T21:11:29.053Z,8.70
2018-04-06T21:13:56.661Z,8.70
2018-04-06T21:16:24.283Z,8.70
2018-04-06T21:18:51.932Z,8.70
2018-04-06T21:21:19.626Z,8.70
2018-04-06T21:23:47.297Z,8.60
2018-04-06T21:26:15.887Z,8.60
2018-04-06T21:28:44.841Z,8.60
2018-04-06T21:31:12.461Z,8.60
2018-04-06T21:33:41.083Z,8.50
2018-04-06T21:36:08.681Z,8.50
2018-04-06T21:38:36.314Z,8.50
2018-04-06T21:41:03.991Z,8.40
2018-04-06T21:43:32.344Z,8.40
2018-04-06T21:45:59.971Z,8.30
2018-04-06T21:48:28.379Z,8.30
2018-04-06T21:50:55.983Z,8.30
2018-04-06T21:53:23.873Z,8.30
2018-04-06T21:55:52.238Z,8.20
2018-04-06T21:58:20.682Z,8.20
2018-04-06T22:00:48.326Z,8.20
2018-04-06T22:03:15.922Z,8.10
2018-04-06T22:05:43.499Z,8.10
2018-04-06T22:08:11.911Z,8.10
2018-04-06T22:10:39.503Z,8.00
2018-04-06T22:13:07.113Z,8.00
2018-04-06T22:15:35.490Z,8.00
2018-04-06T22:18:04.122Z,7.90
2018-04-06T22:20:31.710Z,7.90
2018-04-06T22:22:59.307Z,7.90
2018-04-06T22:25:26.982Z,7.90
2018-04-06T22:27:54.577Z,7.90
2018-04-06T22:30:22.154Z,7.80
2018-04-06T22:32:51.333Z,7.80
2018-04-06T22:35:19.492Z,7.70
2018-04-06T22:37:48.188Z,7.70
2018-04-06T22:40:15.905Z,7.70
2018-04-06T22:42:44.112Z,7.70
2018-04-06T22:45:12.177Z,7.70
2018-04-06T22:47:39.786Z,7.60
2018-04-06T22:50:08.215Z,7.60
2018-04-06T22:52:35.858Z,7.50
2018-04-06T22:55:03.493Z,7.50
2018-04-06T22:57:32.852Z,7.50
2018-04-06T23:00:00.458Z,7.50
2018-04-06T23:02:28.864Z,7.40
2018-04-06T23:04:56.639Z,7.40
2018-04-06T23:07:24.242Z,7.40
2018-04-06T23:09:51.832Z,7.40
2018-04-06T23:12:20.147Z,7.40
2018-04-06T23:14:47.735Z,7.40
2018-04-06T23:17:15.334Z,7.30
2018-04-06T23:19:43.058Z,7.30
2018-04-06T23:22:11.456Z,7.40
2018-04-06T23:24:39.853Z,7.30
2018-04-06T23:27:07.588Z,7.30
2018-04-06T23:29:35.252Z,7.30
2018-04-06T23:32:03.616Z,7.30
2018-04-06T23:34:32.103Z,7.30
2018-04-06T23:37:00.530Z,7.30
2018-04-06T23:39:28.129Z,7.20
2018-04-06T23:41:55.779Z,7.30
2018-04-06T23:44:23.383Z,7.20
2018-04-06T23:46:51.795Z,7.20
2018-04-06T23:49:19.512Z,7.20
2018-04-06T23:51:47.250Z,7.30
2018-04-06T23:54:14.860Z,7.20
2018-04-06T23:56:42.678Z,7.20
2018-04-06T23:59:10.868Z,7.20
